sensor_id;sensor_type;location;lat;lon;timestamp;temperature;humidity
45319;DHT22;31057;48.498;32.260;2023-12-04T00:02:00;-0.30;99.90
45319;DHT22;31057;48.498;32.260;2023-12-04T00:04:02;-0.40;99.90
45319;DHT22;31057;48.498;32.260;2023-12-04T00:06:04;-0.40;99.90
45319;DHT22;31057;48.498;32.260;2023-12-04T00:08:06;-0.40;99.90
45319;DHT22;31057;48.498;32.260;2023-12-04T00:10:08;-0.40;99.90
45319;DHT22;31057;48.498;32.260;2023-12-04T00:12:10;-0.40;99.90
45319;DHT22;31057;48.498;32.260;2023-12-04T00:14:12;-0.40;99.90
45319;DHT22;31057;48.498;32.260;2023-12-04T00:16:14;-0.50;99.90
45319;DHT22;31057;48.498;32.260;2023-12-04T00:18:16;-0.50;99.90
45319;DHT22;31057;48.498;32.260;2023-12-04T00:20:18;-0.50;99.90
45319;DHT22;31057;48.498;32.260;2023-12-04T00:22:20;-0.50;99.90
45319;DHT22;31057;48.498;32.260;2023-12-04T00:24:21;-0.50;99.90
45319;DHT22;31057;48.498;32.260;2023-12-04T00:26:23;-0.50;99.90
45319;DHT22;31057;48.498;32.260;2023-12-04T00:28:25;-0.50;99.90
45319;DHT22;31057;48.498;32.260;2023-12-04T00:30:27;-0.50;99.90
45319;DHT22;31057;48.498;32.260;2023-12-04T00:32:29;-0.50;99.90
45319;DHT22;31057;48.498;32.260;2023-12-04T00:34:32;-0.50;99.90
45319;DHT22;31057;48.498;32.260;2023-12-04T00:36:34;-0.50;99.90
45319;DHT22;31057;48.498;32.260;2023-12-04T00:38:36;-0.50;99.90
45319;DHT22;31057;48.498;32.260;2023-12-04T00:40:38;-0.50;99.90
45319;DHT22;31057;48.498;32.260;2023-12-04T00:42:40;-0.50;99.90
45319;DHT22;31057;48.498;32.260;2023-12-04T00:44:42;-0.50;99.90
45319;DHT22;31057;48.498;32.260;2023-12-04T00:46:44;-0.50;99.90
45319;DHT22;31057;48.498;32.260;2023-12-04T00:48:46;-0.60;99.90
45319;DHT22;31057;48.498;32.260;2023-12-04T00:50:48;-0.60;99.90
45319;DHT22;31057;48.498;32.260;2023-12-04T00:52:50;-0.60;99.90
45319;DHT22;31057;48.498;32.260;2023-12-04T00:54:52;-0.60;99.90
45319;DHT22;31057;48.498;32.260;2023-12-04T00:56:53;-0.60;99.90
45319;DHT22;31057;48.498;32.260;2023-12-04T00:58:56;-0.60;99.90
45319;DHT22;31057;48.498;32.260;2023-12-04T01:00:58;-0.60;99.90
45319;DHT22;31057;48.498;32.260;2023-12-04T01:03:00;-0.60;99.90
45319;DHT22;31057;48.498;32.260;2023-12-04T01:05:01;-0.60;99.90
45319;DHT22;31057;48.498;32.260;2023-12-04T01:07:03;-0.50;99.90
45319;DHT22;31057;48.498;32.260;2023-12-04T01:09:05;-0.50;99.90
45319;DHT22;31057;48.498;32.260;2023-12-04T01:11:07;-0.50;99.90
45319;DHT22;31057;48.498;32.260;2023-12-04T01:13:09;-0.50;99.90
45319;DHT22;31057;48.498;32.260;2023-12-04T01:15:11;-0.50;99.90
45319;DHT22;31057;48.498;32.260;2023-12-04T01:17:13;-0.50;99.90
45319;DHT22;31057;48.498;32.260;2023-12-04T01:19:15;-0.50;99.90
45319;DHT22;31057;48.498;32.260;2023-12-04T01:21:17;-0.50;99.90
45319;DHT22;31057;48.498;32.260;2023-12-04T01:23:19;-0.50;99.90
45319;DHT22;31057;48.498;32.260;2023-12-04T01:25:20;-0.50;99.90
45319;DHT22;31057;48.498;32.260;2023-12-04T01:27:22;-0.50;99.90
45319;DHT22;31057;48.498;32.260;2023-12-04T01:29:24;-0.50;99.90
45319;DHT22;31057;48.498;32.260;2023-12-04T01:31:26;-0.50;99.90
45319;DHT22;31057;48.498;32.260;2023-12-04T01:33:29;-0.50;99.90
45319;DHT22;31057;48.498;32.260;2023-12-04T01:35:32;-0.50;99.90
45319;DHT22;31057;48.498;32.260;2023-12-04T01:37:34;-0.50;99.90
45319;DHT22;31057;48.498;32.260;2023-12-04T01:39:35;-0.50;99.90
45319;DHT22;31057;48.498;32.260;2023-12-04T01:41:38;-0.50;99.90
45319;DHT22;31057;48.498;32.260;2023-12-04T01:43:40;-0.50;99.90
45319;DHT22;31057;48.498;32.260;2023-12-04T01:45:42;-0.50;99.90
45319;DHT22;31057;48.498;32.260;2023-12-04T01:47:44;-0.50;99.90
45319;DHT22;31057;48.498;32.260;2023-12-04T01:49:48;-0.50;99.90
45319;DHT22;31057;48.498;32.260;2023-12-04T01:51:50;-0.50;99.90
45319;DHT22;31057;48.498;32.260;2023-12-04T01:53:52;-0.50;99.90
45319;DHT22;31057;48.498;32.260;2023-12-04T01:55:54;-0.50;99.90
45319;DHT22;31057;48.498;32.260;2023-12-04T01:57:56;-0.50;99.90
45319;DHT22;31057;48.498;32.260;2023-12-04T01:59:58;-0.50;99.90
45319;DHT22;31057;48.498;32.260;2023-12-04T02:02:00;-0.50;99.90
45319;DHT22;31057;48.498;32.260;2023-12-04T02:04:02;-0.50;99.90
45319;DHT22;31057;48.498;32.260;2023-12-04T02:06:04;-0.50;99.90
45319;DHT22;31057;48.498;32.260;2023-12-04T02:08:07;-0.50;99.90
45319;DHT22;31057;48.498;32.260;2023-12-04T02:10:09;-0.50;99.90
45319;DHT22;31057;48.498;32.260;2023-12-04T02:12:11;-0.50;99.90
45319;DHT22;31057;48.498;32.260;2023-12-04T02:14:13;-0.50;99.90
45319;DHT22;31057;48.498;32.260;2023-12-04T02:16:15;-0.50;99.90
45319;DHT22;31057;48.498;32.260;2023-12-04T02:18:18;-0.60;99.90
45319;DHT22;31057;48.498;32.260;2023-12-04T02:20:20;-0.60;99.90
45319;DHT22;31057;48.498;32.260;2023-12-04T02:22:22;-0.60;99.90
45319;DHT22;31057;48.498;32.260;2023-12-04T02:24:24;-0.70;99.90
45319;DHT22;31057;48.498;32.260;2023-12-04T02:26:28;-0.70;99.90
45319;DHT22;31057;48.498;32.260;2023-12-04T02:28:32;-0.70;99.90
45319;DHT22;31057;48.498;32.260;2023-12-04T02:30:35;-0.80;99.90
45319;DHT22;31057;48.498;32.260;2023-12-04T02:32:42;-0.80;99.90
45319;DHT22;31057;48.498;32.260;2023-12-04T02:34:44;-0.90;99.90
45319;DHT22;31057;48.498;32.260;2023-12-04T02:36:50;-1.00;99.90
45319;DHT22;31057;48.498;32.260;2023-12-04T02:38:52;-1.00;99.90
45319;DHT22;31057;48.498;32.260;2023-12-04T02:40:54;-1.10;99.90
45319;DHT22;31057;48.498;32.260;2023-12-04T02:42:56;-1.10;99.90
45319;DHT22;31057;48.498;32.260;2023-12-04T02:44:58;-1.10;99.90
45319;DHT22;31057;48.498;32.260;2023-12-04T02:47:00;-1.20;99.90
45319;DHT22;31057;48.498;32.260;2023-12-04T02:49:02;-1.00;99.90
45319;DHT22;31057;48.498;32.260;2023-12-04T02:51:04;-1.10;99.90
45319;DHT22;31057;48.498;32.260;2023-12-04T02:53:06;-1.20;99.90
45319;DHT22;31057;48.498;32.260;2023-12-04T02:55:08;-1.20;99.90
45319;DHT22;31057;48.498;32.260;2023-12-04T02:57:10;-1.20;99.90
45319;DHT22;31057;48.498;32.260;2023-12-04T02:59:12;-1.30;99.90
45319;DHT22;31057;48.498;32.260;2023-12-04T03:01:14;-1.40;99.90
45319;DHT22;31057;48.498;32.260;2023-12-04T03:03:16;-1.30;99.90
45319;DHT22;31057;48.498;32.260;2023-12-04T03:05:19;-1.30;99.90
45319;DHT22;31057;48.498;32.260;2023-12-04T03:07:20;-1.30;99.90
45319;DHT22;31057;48.498;32.260;2023-12-04T03:09:23;-1.30;99.90
45319;DHT22;31057;48.498;32.260;2023-12-04T03:11:44;-1.30;99.90
45319;DHT22;31057;48.498;32.260;2023-12-04T03:13:46;-1.30;99.90
45319;DHT22;31057;48.498;32.260;2023-12-04T03:15:48;-1.30;99.90
45319;DHT22;31057;48.498;32.260;2023-12-04T03:17:50;-1.30;99.90
45319;DHT22;31057;48.498;32.260;2023-12-04T03:19:52;-1.40;99.90
45319;DHT22;31057;48.498;32.260;2023-12-04T03:21:54;-1.40;99.90
45319;DHT22;31057;48.498;32.260;2023-12-04T03:23:56;-1.40;99.90
45319;DHT22;31057;48.498;32.260;2023-12-04T03:25:57;-1.40;99.90
45319;DHT22;31057;48.498;32.260;2023-12-04T03:27:59;-1.50;99.90
45319;DHT22;31057;48.498;32.260;2023-12-04T03:30:02;-1.50;99.90
45319;DHT22;31057;48.498;32.260;2023-12-04T03:32:04;-1.50;99.90
45319;DHT22;31057;48.498;32.260;2023-12-04T03:34:06;-1.60;99.90
45319;DHT22;31057;48.498;32.260;2023-12-04T03:36:08;-1.50;99.90
45319;DHT22;31057;48.498;32.260;2023-12-04T03:38:10;-1.70;99.90
45319;DHT22;31057;48.498;32.260;2023-12-04T03:40:12;-1.60;99.90
45319;DHT22;31057;48.498;32.260;2023-12-04T03:42:14;-1.60;99.90
45319;DHT22;31057;48.498;32.260;2023-12-04T03:44:15;-1.70;99.90
45319;DHT22;31057;48.498;32.260;2023-12-04T03:46:17;-1.70;99.90
45319;DHT22;31057;48.498;32.260;2023-12-04T03:48:21;-1.70;99.90
45319;DHT22;31057;48.498;32.260;2023-12-04T03:50:23;-1.70;99.90
45319;DHT22;31057;48.498;32.260;2023-12-04T03:52:24;-1.70;99.90
45319;DHT22;31057;48.498;32.260;2023-12-04T03:54:26;-1.80;99.90
45319;DHT22;31057;48.498;32.260;2023-12-04T03:56:28;-1.80;99.90
45319;DHT22;31057;48.498;32.260;2023-12-04T03:58:30;-1.90;99.90
45319;DHT22;31057;48.498;32.260;2023-12-04T04:00:33;-1.80;99.90
45319;DHT22;31057;48.498;32.260;2023-12-04T04:02:35;-1.90;99.90
45319;DHT22;31057;48.498;32.260;2023-12-04T04:04:37;-1.90;99.90
45319;DHT22;31057;48.498;32.260;2023-12-04T04:06:39;-1.90;99.90
45319;DHT22;31057;48.498;32.260;2023-12-04T04:08:41;-2.00;99.90
45319;DHT22;31057;48.498;32.260;2023-12-04T04:10:42;-2.00;99.90
45319;DHT22;31057;48.498;32.260;2023-12-04T04:12:45;-2.00;99.90
45319;DHT22;31057;48.498;32.260;2023-12-04T04:14:47;-2.10;99.90
45319;DHT22;31057;48.498;32.260;2023-12-04T04:16:48;-2.10;99.90
45319;DHT22;31057;48.498;32.260;2023-12-04T04:18:50;-2.10;99.90
45319;DHT22;31057;48.498;32.260;2023-12-04T04:20:52;-2.20;99.90
45319;DHT22;31057;48.498;32.260;2023-12-04T04:22:54;-2.20;99.90
45319;DHT22;31057;48.498;32.260;2023-12-04T04:24:56;-2.20;99.90
45319;DHT22;31057;48.498;32.260;2023-12-04T04:26:58;-2.20;99.90
45319;DHT22;31057;48.498;32.260;2023-12-04T04:29:00;-2.20;99.90
45319;DHT22;31057;48.498;32.260;2023-12-04T04:31:02;-2.20;99.90
45319;DHT22;31057;48.498;32.260;2023-12-04T04:33:04;-2.20;99.90
45319;DHT22;31057;48.498;32.260;2023-12-04T04:35:06;-2.30;99.90
45319;DHT22;31057;48.498;32.260;2023-12-04T04:37:08;-2.20;99.90
45319;DHT22;31057;48.498;32.260;2023-12-04T04:39:11;-2.30;99.90
45319;DHT22;31057;48.498;32.260;2023-12-04T04:41:14;-2.30;99.90
45319;DHT22;31057;48.498;32.260;2023-12-04T04:43:16;-2.30;99.90
45319;DHT22;31057;48.498;32.260;2023-12-04T04:45:18;-2.40;99.90
45319;DHT22;31057;48.498;32.260;2023-12-04T04:47:20;-2.40;99.90
45319;DHT22;31057;48.498;32.260;2023-12-04T04:49:22;-2.40;99.90
45319;DHT22;31057;48.498;32.260;2023-12-04T04:51:24;-2.40;99.90
45319;DHT22;31057;48.498;32.260;2023-12-04T04:53:26;-2.50;99.90
45319;DHT22;31057;48.498;32.260;2023-12-04T04:55:28;-2.50;99.90
45319;DHT22;31057;48.498;32.260;2023-12-04T04:57:49;-2.50;99.90
45319;DHT22;31057;48.498;32.260;2023-12-04T04:59:51;-2.50;99.90
45319;DHT22;31057;48.498;32.260;2023-12-04T05:01:53;-2.60;99.90
45319;DHT22;31057;48.498;32.260;2023-12-04T05:03:55;-2.60;99.90
45319;DHT22;31057;48.498;32.260;2023-12-04T05:05:57;-2.60;99.90
45319;DHT22;31057;48.498;32.260;2023-12-04T05:07:59;-2.70;99.90
45319;DHT22;31057;48.498;32.260;2023-12-04T05:10:00;-2.60;99.90
45319;DHT22;31057;48.498;32.260;2023-12-04T05:12:04;-2.60;99.90
45319;DHT22;31057;48.498;32.260;2023-12-04T05:14:06;-2.60;99.90
45319;DHT22;31057;48.498;32.260;2023-12-04T05:16:08;-2.60;99.90
45319;DHT22;31057;48.498;32.260;2023-12-04T05:18:10;-2.70;99.90
45319;DHT22;31057;48.498;32.260;2023-12-04T05:20:12;-2.80;99.90
45319;DHT22;31057;48.498;32.260;2023-12-04T05:22:14;-2.70;99.90
45319;DHT22;31057;48.498;32.260;2023-12-04T05:24:16;-2.70;99.90
45319;DHT22;31057;48.498;32.260;2023-12-04T05:26:18;-2.70;99.90
45319;DHT22;31057;48.498;32.260;2023-12-04T05:28:20;-2.70;99.90
45319;DHT22;31057;48.498;32.260;2023-12-04T05:30:22;-2.70;99.90
45319;DHT22;31057;48.498;32.260;2023-12-04T05:32:24;-2.80;99.90
45319;DHT22;31057;48.498;32.260;2023-12-04T05:34:27;-2.80;99.90
45319;DHT22;31057;48.498;32.260;2023-12-04T05:36:29;-2.80;99.90
45319;DHT22;31057;48.498;32.260;2023-12-04T05:38:31;-2.80;99.90
45319;DHT22;31057;48.498;32.260;2023-12-04T05:40:33;-2.80;99.90
45319;DHT22;31057;48.498;32.260;2023-12-04T05:42:35;-2.80;99.90
45319;DHT22;31057;48.498;32.260;2023-12-04T05:44:38;-2.70;99.90
45319;DHT22;31057;48.498;32.260;2023-12-04T05:46:39;-2.70;99.90
45319;DHT22;31057;48.498;32.260;2023-12-04T05:48:41;-2.80;99.90
45319;DHT22;31057;48.498;32.260;2023-12-04T05:50:43;-2.70;99.90
45319;DHT22;31057;48.498;32.260;2023-12-04T05:52:45;-2.70;99.90
45319;DHT22;31057;48.498;32.260;2023-12-04T05:54:47;-2.70;99.90
45319;DHT22;31057;48.498;32.260;2023-12-04T05:56:49;-2.70;99.90
45319;DHT22;31057;48.498;32.260;2023-12-04T05:58:51;-2.70;99.90
45319;DHT22;31057;48.498;32.260;2023-12-04T06:00:53;-2.70;99.90
45319;DHT22;31057;48.498;32.260;2023-12-04T06:02:54;-2.70;99.90
45319;DHT22;31057;48.498;32.260;2023-12-04T06:04:56;-2.70;99.90
45319;DHT22;31057;48.498;32.260;2023-12-04T06:06:58;-2.70;99.90
45319;DHT22;31057;48.498;32.260;2023-12-04T06:09:00;-2.60;99.90
45319;DHT22;31057;48.498;32.260;2023-12-04T06:11:02;-2.60;99.90
45319;DHT22;31057;48.498;32.260;2023-12-04T06:13:04;-2.60;99.90
45319;DHT22;31057;48.498;32.260;2023-12-04T06:15:06;-2.60;99.90
45319;DHT22;31057;48.498;32.260;2023-12-04T06:17:08;-2.60;99.90
45319;DHT22;31057;48.498;32.260;2023-12-04T06:19:10;-2.60;99.90
45319;DHT22;31057;48.498;32.260;2023-12-04T06:21:12;-2.60;99.90
45319;DHT22;31057;48.498;32.260;2023-12-04T06:23:14;-2.60;99.90
45319;DHT22;31057;48.498;32.260;2023-12-04T06:25:16;-2.60;99.90
45319;DHT22;31057;48.498;32.260;2023-12-04T06:27:18;-2.60;99.90
45319;DHT22;31057;48.498;32.260;2023-12-04T06:29:23;-2.60;99.90
45319;DHT22;31057;48.498;32.260;2023-12-04T06:31:25;-2.60;99.90
45319;DHT22;31057;48.498;32.260;2023-12-04T06:33:28;-2.50;99.90
45319;DHT22;31057;48.498;32.260;2023-12-04T06:35:30;-2.50;99.90
45319;DHT22;31057;48.498;32.260;2023-12-04T06:37:32;-2.50;99.90
45319;DHT22;31057;48.498;32.260;2023-12-04T06:39:33;-2.40;99.90
45319;DHT22;31057;48.498;32.260;2023-12-04T06:41:36;-2.40;99.90
45319;DHT22;31057;48.498;32.260;2023-12-04T06:43:38;-2.50;99.90
45319;DHT22;31057;48.498;32.260;2023-12-04T06:45:40;-2.50;99.90
45319;DHT22;31057;48.498;32.260;2023-12-04T06:47:43;-2.50;99.90
45319;DHT22;31057;48.498;32.260;2023-12-04T06:49:45;-2.40;99.90
45319;DHT22;31057;48.498;32.260;2023-12-04T06:51:47;-2.40;99.90
45319;DHT22;31057;48.498;32.260;2023-12-04T06:53:49;-2.40;99.90
45319;DHT22;31057;48.498;32.260;2023-12-04T06:55:51;-2.30;99.90
45319;DHT22;31057;48.498;32.260;2023-12-04T06:57:53;-2.20;99.90
45319;DHT22;31057;48.498;32.260;2023-12-04T06:59:55;-2.10;99.90
45319;DHT22;31057;48.498;32.260;2023-12-04T07:01:56;-2.20;99.90
45319;DHT22;31057;48.498;32.260;2023-12-04T07:03:58;-2.10;99.90
45319;DHT22;31057;48.498;32.260;2023-12-04T07:06:01;-2.10;99.90
45319;DHT22;31057;48.498;32.260;2023-12-04T07:08:03;-2.00;99.90
45319;DHT22;31057;48.498;32.260;2023-12-04T07:10:05;-2.10;99.90
45319;DHT22;31057;48.498;32.260;2023-12-04T07:12:07;-2.00;99.90
45319;DHT22;31057;48.498;32.260;2023-12-04T07:14:09;-2.00;99.90
45319;DHT22;31057;48.498;32.260;2023-12-04T07:16:11;-2.00;99.90
45319;DHT22;31057;48.498;32.260;2023-12-04T07:18:13;-1.80;99.90
45319;DHT22;31057;48.498;32.260;2023-12-04T07:20:14;-1.90;99.90
45319;DHT22;31057;48.498;32.260;2023-12-04T07:22:16;-1.90;99.90
45319;DHT22;31057;48.498;32.260;2023-12-04T07:24:18;-1.80;99.90
45319;DHT22;31057;48.498;32.260;2023-12-04T07:26:20;-1.80;99.90
45319;DHT22;31057;48.498;32.260;2023-12-04T07:28:22;-1.80;99.90
45319;DHT22;31057;48.498;32.260;2023-12-04T07:30:24;-1.70;99.90
45319;DHT22;31057;48.498;32.260;2023-12-04T07:32:26;-1.60;99.90
45319;DHT22;31057;48.498;32.260;2023-12-04T07:34:28;-1.60;99.90
45319;DHT22;31057;48.498;32.260;2023-12-04T07:36:30;-1.60;99.90
45319;DHT22;31057;48.498;32.260;2023-12-04T07:38:32;-1.50;99.90
45319;DHT22;31057;48.498;32.260;2023-12-04T07:40:34;-1.50;99.90
45319;DHT22;31057;48.498;32.260;2023-12-04T07:42:36;-1.50;99.90
45319;DHT22;31057;48.498;32.260;2023-12-04T07:44:38;-1.50;99.90
45319;DHT22;31057;48.498;32.260;2023-12-04T07:46:40;-1.60;99.90
45319;DHT22;31057;48.498;32.260;2023-12-04T07:48:42;-1.60;99.90
45319;DHT22;31057;48.498;32.260;2023-12-04T07:50:45;-1.70;99.90
45319;DHT22;31057;48.498;32.260;2023-12-04T07:52:47;-1.60;99.90
45319;DHT22;31057;48.498;32.260;2023-12-04T07:54:49;-1.50;99.90
45319;DHT22;31057;48.498;32.260;2023-12-04T07:56:51;-1.50;99.90
45319;DHT22;31057;48.498;32.260;2023-12-04T07:58:54;-1.40;99.90
45319;DHT22;31057;48.498;32.260;2023-12-04T08:00:56;-1.30;99.90
45319;DHT22;31057;48.498;32.260;2023-12-04T08:02:58;-1.40;99.90
45319;DHT22;31057;48.498;32.260;2023-12-04T08:05:00;-1.30;99.90
45319;DHT22;31057;48.498;32.260;2023-12-04T08:07:03;-1.30;99.90
45319;DHT22;31057;48.498;32.260;2023-12-04T08:09:04;-1.20;99.90
45319;DHT22;31057;48.498;32.260;2023-12-04T08:11:11;-1.30;99.90
45319;DHT22;31057;48.498;32.260;2023-12-04T08:13:13;-1.10;99.90
45319;DHT22;31057;48.498;32.260;2023-12-04T08:15:15;-1.10;99.90
45319;DHT22;31057;48.498;32.260;2023-12-04T08:17:16;-1.00;99.90
45319;DHT22;31057;48.498;32.260;2023-12-04T08:19:18;-0.80;99.90
45319;DHT22;31057;48.498;32.260;2023-12-04T08:21:20;-0.80;99.90
45319;DHT22;31057;48.498;32.260;2023-12-04T08:23:22;-0.60;99.90
45319;DHT22;31057;48.498;32.260;2023-12-04T08:25:24;-0.60;99.90
45319;DHT22;31057;48.498;32.260;2023-12-04T08:27:26;-0.50;99.90
45319;DHT22;31057;48.498;32.260;2023-12-04T08:29:29;-0.50;99.90
45319;DHT22;31057;48.498;32.260;2023-12-04T08:31:31;-0.80;99.90
45319;DHT22;31057;48.498;32.260;2023-12-04T08:33:33;-0.60;99.90
45319;DHT22;31057;48.498;32.260;2023-12-04T08:35:36;-0.80;99.90
45319;DHT22;31057;48.498;32.260;2023-12-04T08:37:38;-0.90;99.90
45319;DHT22;31057;48.498;32.260;2023-12-04T08:39:40;-0.80;99.90
45319;DHT22;31057;48.498;32.260;2023-12-04T08:41:44;-0.80;99.90
45319;DHT22;31057;48.498;32.260;2023-12-04T08:43:58;-0.80;99.90
45319;DHT22;31057;48.498;32.260;2023-12-04T08:46:00;-0.60;99.90
45319;DHT22;31057;48.498;32.260;2023-12-04T08:48:03;-1.00;99.90
45319;DHT22;31057;48.498;32.260;2023-12-04T08:50:05;-0.80;99.90
45319;DHT22;31057;48.498;32.260;2023-12-04T08:52:07;-0.70;99.90
45319;DHT22;31057;48.498;32.260;2023-12-04T08:54:09;-0.70;99.90
45319;DHT22;31057;48.498;32.260;2023-12-04T08:56:13;-0.90;99.90
45319;DHT22;31057;48.498;32.260;2023-12-04T08:58:22;-0.90;99.90
45319;DHT22;31057;48.498;32.260;2023-12-04T09:00:24;-0.80;99.90
45319;DHT22;31057;48.498;32.260;2023-12-04T09:02:26;-0.70;99.90
45319;DHT22;31057;48.498;32.260;2023-12-04T09:04:28;-0.40;99.90
45319;DHT22;31057;48.498;32.260;2023-12-04T09:06:30;-0.10;99.90
45319;DHT22;31057;48.498;32.260;2023-12-04T09:08:35;0.00;99.90
45319;DHT22;31057;48.498;32.260;2023-12-04T09:10:45;-0.30;99.90
45319;DHT22;31057;48.498;32.260;2023-12-04T09:13:09;-0.80;99.90
45319;DHT22;31057;48.498;32.260;2023-12-04T09:15:11;-0.70;99.90
45319;DHT22;31057;48.498;32.260;2023-12-04T09:17:13;-0.80;99.90
45319;DHT22;31057;48.498;32.260;2023-12-04T09:19:15;-0.60;99.90
45319;DHT22;31057;48.498;32.260;2023-12-04T09:21:17;-0.70;99.90
45319;DHT22;31057;48.498;32.260;2023-12-04T09:23:19;-0.60;99.90
45319;DHT22;31057;48.498;32.260;2023-12-04T09:25:21;-0.60;99.90
45319;DHT22;31057;48.498;32.260;2023-12-04T09:27:23;-0.80;99.90
45319;DHT22;31057;48.498;32.260;2023-12-04T09:29:25;-0.50;99.90
45319;DHT22;31057;48.498;32.260;2023-12-04T09:31:26;-0.50;99.90
45319;DHT22;31057;48.498;32.260;2023-12-04T09:33:29;-0.70;99.90
45319;DHT22;31057;48.498;32.260;2023-12-04T09:35:32;-0.50;99.90
45319;DHT22;31057;48.498;32.260;2023-12-04T09:37:33;-0.30;99.90
45319;DHT22;31057;48.498;32.260;2023-12-04T09:39:36;0.20;99.90
45319;DHT22;31057;48.498;32.260;2023-12-04T09:41:38;0.20;99.90
45319;DHT22;31057;48.498;32.260;2023-12-04T09:43:41;0.10;99.90
45319;DHT22;31057;48.498;32.260;2023-12-04T09:45:43;0.00;99.90
45319;DHT22;31057;48.498;32.260;2023-12-04T09:47:45;0.10;99.90
45319;DHT22;31057;48.498;32.260;2023-12-04T09:49:48;-0.10;99.90
45319;DHT22;31057;48.498;32.260;2023-12-04T09:51:53;-0.10;99.90
45319;DHT22;31057;48.498;32.260;2023-12-04T09:53:55;0.20;99.90
45319;DHT22;31057;48.498;32.260;2023-12-04T09:55:59;0.20;99.90
45319;DHT22;31057;48.498;32.260;2023-12-04T09:58:01;0.20;99.90
45319;DHT22;31057;48.498;32.260;2023-12-04T10:00:03;-0.10;99.90
45319;DHT22;31057;48.498;32.260;2023-12-04T10:02:06;-0.20;99.90
45319;DHT22;31057;48.498;32.260;2023-12-04T10:04:08;-0.30;99.90
45319;DHT22;31057;48.498;32.260;2023-12-04T10:06:10;-0.10;99.90
45319;DHT22;31057;48.498;32.260;2023-12-04T10:08:13;-0.10;99.90
45319;DHT22;31057;48.498;32.260;2023-12-04T10:10:15;-0.20;99.90
45319;DHT22;31057;48.498;32.260;2023-12-04T10:12:20;-0.20;99.90
45319;DHT22;31057;48.498;32.260;2023-12-04T10:14:23;-0.10;99.90
45319;DHT22;31057;48.498;32.260;2023-12-04T10:16:32;0.00;99.90
45319;DHT22;31057;48.498;32.260;2023-12-04T10:18:35;-0.20;99.90
45319;DHT22;31057;48.498;32.260;2023-12-04T10:20:37;-0.40;99.90
45319;DHT22;31057;48.498;32.260;2023-12-04T10:24:54;-0.20;99.90
45319;DHT22;31057;48.498;32.260;2023-12-04T10:26:56;-0.20;99.90
45319;DHT22;31057;48.498;32.260;2023-12-04T10:29:01;-0.10;99.90
45319;DHT22;31057;48.498;32.260;2023-12-04T10:31:03;-0.10;99.90
45319;DHT22;31057;48.498;32.260;2023-12-04T10:33:08;-0.20;99.90
45319;DHT22;31057;48.498;32.260;2023-12-04T10:35:12;-0.20;99.90
45319;DHT22;31057;48.498;32.260;2023-12-04T10:37:15;0.10;99.90
45319;DHT22;31057;48.498;32.260;2023-12-04T10:39:17;0.10;99.90
45319;DHT22;31057;48.498;32.260;2023-12-04T10:41:19;0.10;99.90
45319;DHT22;31057;48.498;32.260;2023-12-04T10:43:23;0.00;99.90
45319;DHT22;31057;48.498;32.260;2023-12-04T10:45:26;0.10;99.90
45319;DHT22;31057;48.498;32.260;2023-12-04T10:47:28;0.20;99.90
45319;DHT22;31057;48.498;32.260;2023-12-04T10:49:31;0.10;99.90
45319;DHT22;31057;48.498;32.260;2023-12-04T10:51:33;-0.10;99.90
45319;DHT22;31057;48.498;32.260;2023-12-04T10:53:36;-0.10;99.90
45319;DHT22;31057;48.498;32.260;2023-12-04T10:55:38;-0.10;99.90
45319;DHT22;31057;48.498;32.260;2023-12-04T10:57:41;0.00;99.90
45319;DHT22;31057;48.498;32.260;2023-12-04T10:59:45;0.10;99.90
45319;DHT22;31057;48.498;32.260;2023-12-04T11:01:47;0.10;99.90
45319;DHT22;31057;48.498;32.260;2023-12-04T11:03:53;0.30;99.90
45319;DHT22;31057;48.498;32.260;2023-12-04T11:06:01;0.20;99.90
45319;DHT22;31057;48.498;32.260;2023-12-04T11:08:03;0.30;99.90
45319;DHT22;31057;48.498;32.260;2023-12-04T11:10:22;0.20;99.90
45319;DHT22;31057;48.498;32.260;2023-12-04T11:12:25;0.30;99.90
45319;DHT22;31057;48.498;32.260;2023-12-04T11:14:28;0.40;99.90
45319;DHT22;31057;48.498;32.260;2023-12-04T11:16:51;0.20;99.90
45319;DHT22;31057;48.498;32.260;2023-12-04T11:21:23;0.40;99.90
45319;DHT22;31057;48.498;32.260;2023-12-04T11:23:26;0.40;99.90
45319;DHT22;31057;48.498;32.260;2023-12-04T11:25:29;0.40;99.90
45319;DHT22;31057;48.498;32.260;2023-12-04T11:27:36;0.30;99.90
45319;DHT22;31057;48.498;32.260;2023-12-04T11:29:38;0.30;99.90
45319;DHT22;31057;48.498;32.260;2023-12-04T11:31:40;0.40;99.90
45319;DHT22;31057;48.498;32.260;2023-12-04T11:33:43;0.30;99.90
45319;DHT22;31057;48.498;32.260;2023-12-04T11:35:46;0.30;99.90
45319;DHT22;31057;48.498;32.260;2023-12-04T11:37:48;0.30;99.90
45319;DHT22;31057;48.498;32.260;2023-12-04T11:39:51;0.30;99.90
45319;DHT22;31057;48.498;32.260;2023-12-04T11:41:53;0.20;99.90
45319;DHT22;31057;48.498;32.260;2023-12-04T11:43:55;0.20;99.90
45319;DHT22;31057;48.498;32.260;2023-12-04T11:46:09;0.00;99.90
45319;DHT22;31057;48.498;32.260;2023-12-04T11:48:11;0.20;99.90
45319;DHT22;31057;48.498;32.260;2023-12-04T11:50:16;0.20;99.90
45319;DHT22;31057;48.498;32.260;2023-12-04T11:52:18;0.20;99.90
45319;DHT22;31057;48.498;32.260;2023-12-04T11:56:57;0.20;99.90
45319;DHT22;31057;48.498;32.260;2023-12-04T11:59:04;0.10;99.90
45319;DHT22;31057;48.498;32.260;2023-12-04T12:01:07;0.20;99.90
45319;DHT22;31057;48.498;32.260;2023-12-04T12:03:10;0.20;99.90
45319;DHT22;31057;48.498;32.260;2023-12-04T12:05:23;0.20;99.90
45319;DHT22;31057;48.498;32.260;2023-12-04T12:07:25;0.10;99.90
45319;DHT22;31057;48.498;32.260;2023-12-04T12:09:28;0.10;99.90
45319;DHT22;31057;48.498;32.260;2023-12-04T12:11:30;0.10;99.90
45319;DHT22;31057;48.498;32.260;2023-12-04T12:13:32;0.00;99.90
45319;DHT22;31057;48.498;32.260;2023-12-04T12:15:34;0.10;99.90
45319;DHT22;31057;48.498;32.260;2023-12-04T12:17:40;0.10;99.90
45319;DHT22;31057;48.498;32.260;2023-12-04T12:19:42;0.10;99.90
45319;DHT22;31057;48.498;32.260;2023-12-04T12:21:44;0.00;99.90
45319;DHT22;31057;48.498;32.260;2023-12-04T12:23:46;0.00;99.90
45319;DHT22;31057;48.498;32.260;2023-12-04T12:25:48;0.00;99.90
45319;DHT22;31057;48.498;32.260;2023-12-04T12:27:52;0.00;99.90
45319;DHT22;31057;48.498;32.260;2023-12-04T12:29:54;0.10;99.90
45319;DHT22;31057;48.498;32.260;2023-12-04T12:31:56;0.10;99.90
45319;DHT22;31057;48.498;32.260;2023-12-04T12:33:58;0.10;99.90
45319;DHT22;31057;48.498;32.260;2023-12-04T12:36:00;0.10;99.90
45319;DHT22;31057;48.498;32.260;2023-12-04T12:38:06;0.00;99.90
45319;DHT22;31057;48.498;32.260;2023-12-04T12:40:09;0.00;99.90
45319;DHT22;31057;48.498;32.260;2023-12-04T12:42:11;0.00;99.90
45319;DHT22;31057;48.498;32.260;2023-12-04T12:44:14;0.10;99.90
45319;DHT22;31057;48.498;32.260;2023-12-04T12:46:17;0.00;99.90
45319;DHT22;31057;48.498;32.260;2023-12-04T12:48:19;0.00;99.90
45319;DHT22;31057;48.498;32.260;2023-12-04T12:50:21;0.00;99.90
45319;DHT22;31057;48.498;32.260;2023-12-04T12:52:23;0.00;99.90
45319;DHT22;31057;48.498;32.260;2023-12-04T12:54:27;0.00;99.90